createdAt,value
2023-04-17T00:01:21.506Z,74.22
2023-04-17T00:03:47.965Z,74.31
2023-04-17T00:06:14.308Z,74.65
2023-04-17T00:08:40.548Z,75.17
2023-04-17T00:11:08.462Z,75.21
2023-04-17T00:13:35.418Z,74.99
2023-04-17T00:16:01.699Z,75.40
2023-04-17T00:18:27.970Z,75.41
2023-04-17T00:20:54.196Z,74.99
2023-04-17T00:23:20.447Z,74.90
2023-04-17T00:25:46.694Z,74.71
2023-04-17T00:28:12.948Z,74.52
2023-04-17T00:30:39.190Z,74.94
2023-04-17T00:33:05.508Z,74.93
2023-04-17T00:35:31.761Z,75.04
2023-04-17T00:37:58.066Z,75.55
2023-04-17T00:40:24.408Z,76.40
2023-04-17T00:42:50.645Z,77.40
2023-04-17T00:45:16.868Z,77.33
2023-04-17T00:47:43.191Z,77.46
2023-04-17T00:50:09.491Z,78.96
2023-04-17T00:52:35.717Z,79.25
2023-04-17T00:55:01.990Z,80.15
2023-04-17T00:57:28.262Z,78.38
2023-04-17T00:59:54.521Z,77.92
2023-04-17T01:02:20.894Z,77.45
2023-04-17T01:04:47.196Z,77.48
2023-04-17T01:07:13.497Z,76.77
2023-04-17T01:09:39.728Z,77.12
2023-04-17T01:12:06.021Z,77.55
2023-04-17T01:14:32.291Z,76.81
2023-04-17T01:16:58.548Z,76.55
2023-04-17T01:19:24.875Z,76.66
2023-04-17T01:21:51.151Z,76.70
2023-04-17T01:24:17.410Z,76.96
2023-04-17T01:26:43.707Z,76.82
2023-04-17T01:29:10.128Z,76.95
2023-04-17T01:31:36.590Z,76.76
2023-04-17T01:34:02.843Z,74.53
2023-04-17T01:36:29.096Z,73.55
2023-04-17T01:38:55.392Z,74.95
2023-04-17T01:41:21.713Z,75.11
2023-04-17T01:43:48.012Z,74.46
2023-04-17T01:46:14.346Z,74.12
2023-04-17T01:48:40.745Z,75.26
2023-04-17T01:51:07.098Z,75.35
2023-04-17T01:53:33.357Z,75.83
2023-04-17T01:55:59.593Z,74.75
2023-04-17T01:58:25.886Z,74.39
2023-04-17T02:00:52.150Z,74.49
2023-04-17T02:03:18.520Z,74.28
2023-04-17T02:05:44.911Z,74.36
2023-04-17T02:08:11.154Z,74.73
2023-04-17T02:10:37.437Z,75.61
2023-04-17T02:13:03.672Z,75.68
2023-04-17T02:15:29.949Z,75.52
2023-04-17T02:17:56.234Z,75.81
2023-04-17T02:20:22.576Z,74.32
2023-04-17T02:22:48.837Z,74.86
2023-04-17T02:25:15.131Z,75.73
2023-04-17T02:27:41.399Z,74.99
2023-04-17T02:30:07.696Z,74.59
2023-04-17T02:32:33.999Z,74.15
2023-04-17T02:35:00.296Z,74.23
2023-04-17T02:37:26.609Z,74.88
2023-04-17T02:39:52.902Z,74.84
2023-04-17T02:42:19.515Z,75.13
2023-04-17T02:44:45.744Z,75.64
2023-04-17T02:47:11.985Z,75.65
2023-04-17T02:49:38.254Z,74.61
2023-04-17T02:52:04.530Z,74.28
2023-04-17T02:54:30.816Z,74.77
2023-04-17T02:56:57.068Z,74.66
2023-04-17T02:59:23.370Z,75.81
2023-04-17T03:01:49.741Z,75.75
2023-04-17T03:04:16.205Z,76.47
2023-04-17T03:06:42.544Z,77.77
2023-04-17T03:09:08.859Z,78.06
2023-04-17T03:11:35.198Z,77.10
2023-04-17T03:14:01.549Z,76.36
2023-04-17T03:16:27.951Z,77.20
2023-04-17T03:18:54.264Z,79.04
2023-04-17T03:21:20.530Z,79.15
2023-04-17T03:23:46.791Z,78.51
2023-04-17T03:26:13.049Z,78.64
2023-04-17T03:28:39.300Z,79.10
2023-04-17T03:31:05.573Z,78.94
2023-04-17T03:33:31.864Z,78.04
2023-04-17T03:35:58.120Z,76.09
2023-04-17T03:38:24.420Z,74.66
2023-04-17T03:40:50.763Z,73.92
2023-04-17T03:43:17.037Z,73.83
2023-04-17T03:45:43.376Z,75.63
2023-04-17T03:48:09.756Z,77.22
2023-04-17T03:50:36.033Z,77.90
2023-04-17T03:53:02.304Z,78.72
2023-04-17T03:55:28.605Z,78.35
2023-04-17T03:57:54.878Z,78.16
2023-04-17T04:00:21.165Z,78.08
2023-04-17T04:02:47.572Z,77.61
2023-04-17T04:05:14.182Z,78.21
2023-04-17T04:07:40.940Z,77.77
2023-04-17T04:10:07.195Z,76.75
2023-04-17T04:12:33.483Z,75.74
2023-04-17T04:14:59.734Z,74.72
2023-04-17T04:17:26.005Z,74.41
2023-04-17T04:19:52.320Z,75.38
2023-04-17T04:22:18.615Z,76.38
2023-04-17T04:24:44.885Z,76.36
2023-04-17T04:27:11.118Z,76.50
2023-04-17T04:29:37.368Z,75.03
2023-04-17T04:32:03.594Z,74.74
2023-04-17T04:34:29.915Z,74.30
2023-04-17T04:36:56.224Z,73.82
2023-04-17T04:39:22.445Z,74.14
2023-04-17T04:41:48.706Z,71.74
2023-04-17T04:44:14.933Z,72.77
2023-04-17T04:46:41.205Z,72.83
2023-04-17T04:49:07.488Z,73.86
2023-04-17T04:51:33.739Z,73.55
2023-04-17T04:53:59.969Z,73.25
2023-04-17T04:56:26.207Z,72.98
2023-04-17T04:58:52.480Z,73.61
2023-04-17T05:01:18.859Z,73.76
2023-04-17T05:03:45.331Z,73.48
2023-04-17T05:06:11.789Z,72.96
2023-04-17T05:08:38.029Z,70.80
2023-04-17T05:11:04.294Z,69.61
2023-04-17T05:13:30.568Z,70.69
2023-04-17T05:15:56.837Z,69.46
2023-04-17T05:18:23.301Z,69.31
2023-04-17T05:20:49.557Z,67.51
2023-04-17T05:23:15.855Z,68.88
2023-04-17T05:25:42.108Z,69.70
2023-04-17T05:28:08.342Z,70.23
2023-04-17T05:30:34.585Z,70.02
2023-04-17T05:33:00.950Z,68.35
2023-04-17T05:35:27.325Z,68.09
2023-04-17T05:37:53.590Z,68.69
2023-04-17T05:40:19.848Z,68.72
2023-04-17T05:42:46.113Z,68.80
2023-04-17T05:45:12.354Z,68.50
2023-04-17T05:47:38.715Z,67.24
2023-04-17T05:50:05.008Z,65.66
2023-04-17T05:52:31.315Z,66.63
2023-04-17T05:54:57.570Z,66.47
2023-04-17T05:57:23.828Z,66.72
2023-04-17T05:59:50.226Z,63.94
2023-04-17T06:02:16.651Z,63.10
2023-04-17T06:04:43.225Z,64.04
2023-04-17T06:07:09.749Z,65.10
2023-04-17T06:09:36.058Z,65.22
2023-04-17T06:12:02.322Z,66.90
2023-04-17T06:14:28.564Z,63.33
2023-04-17T06:16:54.857Z,62.45
2023-04-17T06:19:21.226Z,63.82
2023-04-17T06:21:47.560Z,63.07
2023-04-17T06:24:13.862Z,63.91
2023-04-17T06:26:40.122Z,63.34
2023-04-17T06:29:06.382Z,63.35
2023-04-17T06:31:32.820Z,63.59
2023-04-17T06:33:59.214Z,63.51
2023-04-17T06:36:25.472Z,61.83
2023-04-17T06:38:51.731Z,61.18
2023-04-17T06:41:18.033Z,60.44
2023-04-17T06:43:44.308Z,60.66
2023-04-17T06:46:10.604Z,60.85
2023-04-17T06:48:36.851Z,60.39
2023-04-17T06:51:03.079Z,59.56
2023-04-17T06:53:29.356Z,59.37
2023-04-17T06:55:55.662Z,58.73
2023-04-17T06:58:21.935Z,59.96
2023-04-17T07:00:48.242Z,61.95
2023-04-17T07:03:14.649Z,59.71
2023-04-17T07:05:41.114Z,60.09
2023-04-17T07:08:07.354Z,58.90
2023-04-17T07:10:33.604Z,59.21
2023-04-17T07:12:59.855Z,58.72
2023-04-17T07:15:26.126Z,57.48
2023-04-17T07:17:52.446Z,57.71
2023-04-17T07:20:18.763Z,59.07
2023-04-17T07:22:45.001Z,57.16
2023-04-17T07:25:11.300Z,57.85
2023-04-17T07:27:37.577Z,59.31
2023-04-17T07:30:03.827Z,59.54
2023-04-17T07:32:30.097Z,60.01
2023-04-17T07:34:56.393Z,60.68
2023-04-17T07:37:22.668Z,60.64
2023-04-17T07:39:48.923Z,61.23
2023-04-17T07:42:15.195Z,60.95
2023-04-17T07:44:41.452Z,59.40
2023-04-17T07:47:07.806Z,61.78
2023-04-17T07:49:34.116Z,60.76
2023-04-17T07:52:00.369Z,58.48
2023-04-17T07:54:26.614Z,58.71
2023-04-17T07:56:52.853Z,57.15
2023-04-17T07:59:19.092Z,58.18
2023-04-17T08:01:45.399Z,58.33
2023-04-17T08:04:12.032Z,59.00
2023-04-17T08:06:38.508Z,57.71
2023-04-17T08:09:04.830Z,57.95
2023-04-17T08:11:31.093Z,58.46
2023-04-17T08:13:57.426Z,59.31
2023-04-17T08:16:23.737Z,57.76
2023-04-17T08:18:50.030Z,57.59
2023-04-17T08:21:16.350Z,57.23
2023-04-17T08:23:42.645Z,56.25
2023-04-17T08:26:08.907Z,57.45
2023-04-17T08:28:35.291Z,55.81
2023-04-17T08:31:01.595Z,57.85
2023-04-17T08:33:27.875Z,56.36
2023-04-17T08:35:54.201Z,57.69
2023-04-17T08:38:20.496Z,57.00
2023-04-17T08:40:46.792Z,56.34
2023-04-17T08:43:13.044Z,57.47
2023-04-17T08:45:39.302Z,56.72
2023-04-17T08:48:05.627Z,56.77
2023-04-17T08:50:32.002Z,56.52
2023-04-17T08:52:58.226Z,56.73
2023-04-17T08:55:24.580Z,55.94
2023-04-17T08:57:50.927Z,55.71
2023-04-17T09:00:17.194Z,55.40
2023-04-17T09:02:43.579Z,54.64
2023-04-17T09:05:10.045Z,54.33
2023-04-17T09:07:36.314Z,53.87
2023-04-17T09:10:02.572Z,54.55
2023-04-17T09:12:28.817Z,53.66
2023-04-17T09:14:55.055Z,52.73
2023-04-17T09:17:21.357Z,52.60
2023-04-17T09:19:47.614Z,52.06
2023-04-17T09:22:13.887Z,51.85
2023-04-17T09:24:40.295Z,53.09
2023-04-17T09:27:06.532Z,51.62
2023-04-17T09:29:32.772Z,53.21
2023-04-17T09:31:59.098Z,52.18
2023-04-17T09:34:25.439Z,50.53
2023-04-17T09:36:51.668Z,51.40
2023-04-17T09:41:58.105Z,51.72
2023-04-17T09:44:24.451Z,49.65
2023-04-17T09:46:50.859Z,46.74
2023-04-17T09:49:17.534Z,47.52
2023-04-17T09:51:44.000Z,47.12
2023-04-17T09:54:10.525Z,48.57
2023-04-17T09:56:37.095Z,49.22
2023-04-17T09:59:03.395Z,47.31
2023-04-17T10:01:29.851Z,46.71
2023-04-17T10:03:56.545Z,47.04
2023-04-17T10:06:22.970Z,46.43
2023-04-17T10:08:49.246Z,46.63
2023-04-17T10:11:15.842Z,46.06
2023-04-17T10:13:42.140Z,46.16
2023-04-17T10:16:08.572Z,43.04
2023-04-17T10:18:34.901Z,44.00
2023-04-17T10:21:01.124Z,45.82
2023-04-17T10:23:27.563Z,42.60
2023-04-17T10:25:53.907Z,43.66
2023-04-17T10:28:20.195Z,42.54
2023-04-17T10:30:46.535Z,44.09
2023-04-17T10:33:13.049Z,41.98
2023-04-17T10:35:39.387Z,40.27
2023-04-17T10:38:05.670Z,43.94
2023-04-17T10:40:33.402Z,43.28
2023-04-17T10:42:59.862Z,39.71
2023-04-17T10:45:26.236Z,41.71
2023-04-17T10:47:52.661Z,39.99
2023-04-17T10:50:18.944Z,42.50
2023-04-17T10:52:45.363Z,42.63
2023-04-17T10:55:11.852Z,41.96
2023-04-17T10:57:38.279Z,42.93
2023-04-17T11:00:04.641Z,42.07
2023-04-17T11:02:31.046Z,43.08
2023-04-17T11:04:57.474Z,41.41
2023-04-17T11:07:23.789Z,42.25
2023-04-17T11:09:50.026Z,41.41
2023-04-17T11:12:16.275Z,41.36
2023-04-17T11:14:42.545Z,39.39
2023-04-17T11:17:08.996Z,41.87
2023-04-17T11:19:35.389Z,39.83
2023-04-17T11:22:01.755Z,41.70
2023-04-17T11:24:28.239Z,40.36
2023-04-17T11:26:54.735Z,38.67
2023-04-17T11:29:21.189Z,39.69
2023-04-17T11:31:47.696Z,38.67
2023-04-17T11:34:14.048Z,38.60
2023-04-17T11:36:40.289Z,39.86
2023-04-17T11:39:06.660Z,41.68
2023-04-17T11:41:32.945Z,42.31
2023-04-17T11:43:59.187Z,39.62
2023-04-17T11:46:25.465Z,40.41
2023-04-17T11:48:51.729Z,37.72
2023-04-17T11:51:18.056Z,36.67
2023-04-17T11:53:44.313Z,36.80
2023-04-17T11:56:11.726Z,36.69
2023-04-17T11:58:38.018Z,38.83
2023-04-17T12:01:04.284Z,38.91
2023-04-17T12:03:30.856Z,37.11
2023-04-17T12:05:57.548Z,38.08
2023-04-17T12:08:23.868Z,36.89
2023-04-17T12:10:50.121Z,38.09
2023-04-17T12:13:16.386Z,38.36
2023-04-17T12:15:42.622Z,37.25
2023-04-17T12:18:08.959Z,36.64
2023-04-17T12:20:35.286Z,36.54
2023-04-17T12:23:01.530Z,37.25
2023-04-17T12:25:28.094Z,38.69
2023-04-17T12:27:54.437Z,37.40
2023-04-17T12:30:20.696Z,36.87
2023-04-17T12:32:46.982Z,36.34
2023-04-17T12:35:13.271Z,36.63
2023-04-17T12:37:39.601Z,35.95
2023-04-17T12:40:05.877Z,37.94
2023-04-17T12:42:36.366Z,36.96
2023-04-17T12:45:12.636Z,37.10
2023-04-17T12:47:38.946Z,37.26
2023-04-17T12:50:05.213Z,36.29
2023-04-17T12:52:31.452Z,36.30
2023-04-17T12:54:57.716Z,37.69
2023-04-17T12:57:23.948Z,36.71
2023-04-17T12:59:50.198Z,36.86
2023-04-17T13:02:16.562Z,37.29
2023-04-17T13:04:42.951Z,37.25
2023-04-17T13:07:09.274Z,37.82
2023-04-17T13:09:35.517Z,36.76
2023-04-17T13:12:01.796Z,37.71
2023-04-17T13:14:28.008Z,36.91
2023-04-17T13:16:54.323Z,37.79
2023-04-17T13:19:20.569Z,38.03
2023-04-17T13:21:46.807Z,38.16
2023-04-17T13:24:13.062Z,37.90
2023-04-17T13:26:39.370Z,36.94
2023-04-17T13:29:05.598Z,36.27
2023-04-17T13:31:31.970Z,36.25
2023-04-17T13:33:58.315Z,35.90
2023-04-17T13:36:24.535Z,36.08
2023-04-17T13:38:50.783Z,37.15
2023-04-17T13:41:17.022Z,35.19
2023-04-17T13:43:43.272Z,35.80
2023-04-17T13:46:09.607Z,35.12
2023-04-17T13:48:35.881Z,34.66
2023-04-17T13:51:02.184Z,34.69
2023-04-17T13:53:28.472Z,34.60
2023-04-17T13:55:54.788Z,34.65
2023-04-17T13:58:21.091Z,35.77
2023-04-17T14:00:47.580Z,33.83
2023-04-17T14:03:13.909Z,33.53
2023-04-17T14:05:40.344Z,32.74
2023-04-17T14:08:06.999Z,33.42
2023-04-17T14:10:33.344Z,32.97
2023-04-17T14:12:59.615Z,33.31
2023-04-17T14:15:25.888Z,31.57
2023-04-17T14:17:52.234Z,32.58
2023-04-17T14:20:18.536Z,31.90
2023-04-17T14:22:44.821Z,31.96
2023-04-17T14:25:11.143Z,32.20
2023-04-17T14:27:37.425Z,32.33
2023-04-17T14:30:03.796Z,33.11
2023-04-17T14:32:30.172Z,33.63
2023-04-17T14:34:56.455Z,33.23
2023-04-17T14:37:22.712Z,31.92
2023-04-17T14:39:48.956Z,32.87
2023-04-17T14:42:15.209Z,32.09
2023-04-17T14:44:41.468Z,32.71
2023-04-17T14:47:08.070Z,33.50
2023-04-17T14:49:34.393Z,33.73
2023-04-17T14:52:00.669Z,33.00
2023-04-17T14:54:26.986Z,32.71
2023-04-17T14:56:53.226Z,32.56
2023-04-17T14:59:19.466Z,33.38
2023-04-17T15:01:45.724Z,32.85
2023-04-17T15:04:12.114Z,33.31
2023-04-17T15:06:38.578Z,32.50
2023-04-17T15:09:04.817Z,33.15
2023-04-17T15:11:31.082Z,31.99
2023-04-17T15:13:57.334Z,31.94
2023-04-17T15:16:23.619Z,32.20
2023-04-17T15:18:49.957Z,31.71
2023-04-17T15:21:16.249Z,31.26
2023-04-17T15:23:42.492Z,29.95
2023-04-17T15:26:10.035Z,30.30
2023-04-17T15:28:36.306Z,29.96
2023-04-17T15:31:02.626Z,30.26
2023-04-17T15:33:28.895Z,30.20
2023-04-17T15:35:55.152Z,31.43
2023-04-17T15:38:21.419Z,31.33
2023-04-17T15:40:47.700Z,31.59
2023-04-17T15:43:13.945Z,34.36
2023-04-17T15:45:40.233Z,35.81
2023-04-17T15:48:06.579Z,35.76
2023-04-17T15:50:32.871Z,36.30
2023-04-17T15:52:59.164Z,35.58
2023-04-17T15:55:25.484Z,35.72
2023-04-17T15:57:51.726Z,36.02
2023-04-17T16:00:17.949Z,36.44
2023-04-17T16:02:44.296Z,36.37
2023-04-17T16:05:10.615Z,37.61
2023-04-17T16:07:36.852Z,36.96
2023-04-17T16:10:03.099Z,37.52
2023-04-17T16:12:29.337Z,38.16
2023-04-17T16:14:55.590Z,38.42
2023-04-17T16:17:21.891Z,38.88
2023-04-17T16:19:50.336Z,38.44
2023-04-17T16:22:17.045Z,39.20
2023-04-17T16:24:43.268Z,38.37
2023-04-17T16:27:09.540Z,37.90
2023-04-17T16:29:35.793Z,38.30
2023-04-17T16:32:02.104Z,37.67
2023-04-17T16:34:28.373Z,38.29
2023-04-17T16:36:54.615Z,38.11
2023-04-17T16:39:20.889Z,37.26
2023-04-17T16:41:47.192Z,38.39
2023-04-17T16:44:13.762Z,36.95
2023-04-17T16:47:03.014Z,37.68
2023-04-17T16:49:26.487Z,37.81
2023-04-17T16:51:52.732Z,37.61
2023-04-17T16:54:18.975Z,39.07
2023-04-17T16:56:45.312Z,39.03
2023-04-17T16:59:11.767Z,38.78
2023-04-17T17:01:38.266Z,38.71
2023-04-17T17:04:04.616Z,37.81
2023-04-17T17:06:30.870Z,37.73
2023-04-17T17:08:57.150Z,37.80
2023-04-17T17:11:23.408Z,38.24
2023-04-17T17:13:50.224Z,38.19
2023-04-17T17:16:16.851Z,39.36
2023-04-17T17:18:43.351Z,40.05
2023-04-17T17:21:09.581Z,39.05
2023-04-17T17:23:35.823Z,39.18
2023-04-17T17:26:02.085Z,39.35
2023-04-17T17:28:28.361Z,40.22
2023-04-17T17:30:54.584Z,40.15
2023-04-17T17:33:20.812Z,40.50
2023-04-17T17:35:47.111Z,40.09
2023-04-17T17:38:13.432Z,40.61
2023-04-17T17:40:39.678Z,40.63
2023-04-17T17:43:06.675Z,43.30
2023-04-17T17:45:32.939Z,43.12
2023-04-17T17:47:59.218Z,42.42
2023-04-17T17:50:25.515Z,42.66
2023-04-17T17:52:51.782Z,42.92
2023-04-17T17:55:18.124Z,42.52
2023-04-17T17:57:49.201Z,42.27
2023-04-17T18:00:16.122Z,42.87
2023-04-17T18:02:42.634Z,43.47
2023-04-17T18:05:08.977Z,42.88
2023-04-17T18:07:35.220Z,42.65
2023-04-17T18:10:01.467Z,42.88
2023-04-17T18:12:27.712Z,42.48
2023-04-17T18:14:54.081Z,42.26
2023-04-17T18:17:20.358Z,42.18
2023-04-17T18:19:46.608Z,41.83
2023-04-17T18:22:12.844Z,42.30
2023-04-17T18:24:39.080Z,43.02
2023-04-17T18:27:05.377Z,43.13
2023-04-17T18:29:31.693Z,43.36
2023-04-17T18:31:57.951Z,42.93
2023-04-17T18:34:24.214Z,43.08
2023-04-17T18:36:50.515Z,43.45
2023-04-17T18:39:16.744Z,43.74
2023-04-17T18:41:43.011Z,43.67
2023-04-17T18:44:09.272Z,43.92
2023-04-17T18:46:35.537Z,43.84
2023-04-17T18:49:01.838Z,44.59
2023-04-17T18:51:28.116Z,44.51
2023-04-17T18:53:54.350Z,44.55
2023-04-17T18:56:20.571Z,45.25
2023-04-17T18:58:46.816Z,45.96
2023-04-17T19:01:13.152Z,46.40
2023-04-17T19:03:39.494Z,46.38
2023-04-17T19:06:05.726Z,46.06
2023-04-17T19:08:31.981Z,46.28
2023-04-17T19:10:58.215Z,46.60
2023-04-17T19:13:24.464Z,47.00
2023-04-17T19:15:50.741Z,47.23
2023-04-17T19:18:17.007Z,47.23
2023-04-17T19:20:43.242Z,47.97
2023-04-17T19:23:09.501Z,47.95
2023-04-17T19:25:35.749Z,47.77
2023-04-17T19:28:02.017Z,47.84
2023-04-17T19:30:28.251Z,47.48
2023-04-17T19:32:54.561Z,47.67
2023-04-17T19:35:20.875Z,47.68
2023-04-17T19:37:47.140Z,48.14
2023-04-17T19:40:24.119Z,48.45
2023-04-17T19:42:51.597Z,49.07
2023-04-17T19:45:17.832Z,49.94
2023-04-17T19:47:44.173Z,49.97
2023-04-17T19:50:10.465Z,50.13
2023-04-17T19:52:36.738Z,50.22
2023-04-17T19:55:03.032Z,50.14
2023-04-17T19:57:29.347Z,50.25
2023-04-17T20:00:15.564Z,50.67
2023-04-17T20:02:41.988Z,50.42
2023-04-17T20:05:08.357Z,50.22
2023-04-17T20:07:34.597Z,50.32
2023-04-17T20:10:00.834Z,50.74
2023-04-17T20:12:27.108Z,52.24
2023-04-17T20:14:53.365Z,51.99
2023-04-17T20:17:19.670Z,52.42
2023-04-17T20:19:45.943Z,53.06
2023-04-17T20:22:12.175Z,53.07
2023-04-17T20:24:38.433Z,53.53
2023-04-17T20:27:04.684Z,53.81
2023-04-17T20:29:30.927Z,54.20
2023-04-17T20:31:57.163Z,53.89
2023-04-17T20:34:23.995Z,53.70
2023-04-17T20:36:50.297Z,53.93
2023-04-17T20:39:16.547Z,53.90
2023-04-17T20:41:42.801Z,54.05
2023-04-17T20:44:09.042Z,54.10
2023-04-17T20:46:35.338Z,53.78
2023-04-17T20:49:01.603Z,54.12
2023-04-17T20:51:27.869Z,54.53
2023-04-17T20:53:54.129Z,54.92
2023-04-17T20:56:20.361Z,55.14
2023-04-17T20:58:46.597Z,54.62
2023-04-17T21:01:12.890Z,54.65
2023-04-17T21:03:39.234Z,55.58
2023-04-17T21:06:05.578Z,55.86
2023-04-17T21:08:31.884Z,56.73
2023-04-17T21:10:58.131Z,56.80
2023-04-17T21:13:26.256Z,56.77
2023-04-17T21:15:52.553Z,56.39
2023-04-17T21:18:18.861Z,56.89
2023-04-17T21:20:45.092Z,57.13
2023-04-17T21:23:11.329Z,57.29
2023-04-17T21:25:38.258Z,57.59
2023-04-17T21:28:04.577Z,57.74
2023-04-17T21:30:30.882Z,57.06
2023-04-17T21:32:57.204Z,56.87
2023-04-17T21:35:23.519Z,56.73
2023-04-17T21:37:49.813Z,57.42
2023-04-17T21:40:17.189Z,57.89
2023-04-17T21:42:43.440Z,57.78
2023-04-17T21:45:09.708Z,58.06
2023-04-17T21:47:35.991Z,58.11
2023-04-17T21:50:02.253Z,58.17
2023-04-17T21:52:28.489Z,58.70
2023-04-17T21:54:54.708Z,58.73
2023-04-17T21:57:20.950Z,58.38
2023-04-17T21:59:47.262Z,58.58
2023-04-17T22:02:13.559Z,59.22
2023-04-17T22:04:39.895Z,59.59
2023-04-17T22:07:06.188Z,59.52
2023-04-17T22:09:32.434Z,59.46
2023-04-17T22:11:58.784Z,59.46
2023-04-17T22:14:25.046Z,60.13
2023-04-17T22:16:51.347Z,60.26
2023-04-17T22:19:17.644Z,60.27
2023-04-17T22:21:43.891Z,60.77
2023-04-17T22:24:10.180Z,60.94
2023-04-17T22:26:36.411Z,60.84
2023-04-17T22:29:02.677Z,61.69
2023-04-17T22:31:28.970Z,61.75
2023-04-17T22:33:55.211Z,61.31
2023-04-17T22:36:21.452Z,61.13
2023-04-17T22:38:47.795Z,60.87
2023-04-17T22:41:14.057Z,60.92
2023-04-17T22:43:40.330Z,60.76
2023-04-17T22:46:06.612Z,60.67
2023-04-17T22:48:32.847Z,60.45
2023-04-17T22:50:59.102Z,60.42
2023-04-17T22:53:25.335Z,60.52
2023-04-17T22:55:51.576Z,60.45
2023-04-17T22:58:17.804Z,59.88
2023-04-17T23:00:44.089Z,59.38
2023-04-17T23:03:10.484Z,59.25
2023-04-17T23:05:36.865Z,58.96
2023-04-17T23:08:03.129Z,58.89
2023-04-17T23:10:29.377Z,59.15
2023-04-17T23:12:55.609Z,58.67
2023-04-17T23:15:21.903Z,58.08
2023-04-17T23:17:48.224Z,58.15
2023-04-17T23:20:14.489Z,58.27
2023-04-17T23:22:40.895Z,58.59
2023-04-17T23:25:07.215Z,58.92
2023-04-17T23:27:33.476Z,59.53
2023-04-17T23:29:59.724Z,59.76
2023-04-17T23:32:25.980Z,59.33
2023-04-17T23:34:52.228Z,59.10
2023-04-17T23:37:18.484Z,59.57
2023-04-17T23:39:44.742Z,59.40
2023-04-17T23:42:10.965Z,59.33
2023-04-17T23:44:37.237Z,59.32
2023-04-17T23:47:03.609Z,59.85
2023-04-17T23:49:29.946Z,59.59
2023-04-17T23:51:56.210Z,60.10
2023-04-17T23:54:22.445Z,60.49
2023-04-17T23:56:48.690Z,60.25
2023-04-17T23:59:14.919Z,60.22
